Time;durP1;ratioP1;P1;durP2;ratioP2;P2;SDS_P1;SDS_P2;PMS_P1;PMS_P2;Temp;Humidity;BMP_temperature;BMP_pressure;BME280_temperature;BME280_humidity;BME280_pressure;Samples;Min_cycle;Max_cycle;Signal;HPM_P1;HPM_P2
2022/01/09 00:02:25;;;;;;;1.58;0.65;;;;;;;;;;5054524;28;20112;-72
2022/01/09 00:04:51;;;;;;;0.95;0.50;;;;;;;;;;5049604;28;20025;-72
2022/01/09 00:07:18;;;;;;;1.52;0.75;;;;;;;;;;5032657;28;20036;-72
2022/01/09 00:09:44;;;;;;;1.98;0.52;;;;;;;;;;5032785;28;20026;-72
2022/01/09 00:12:14;;;;;;;1.80;0.80;;;;;;;;;;5034052;28;20420;-72
2022/01/09 00:14:40;;;;;;;1.85;0.65;;;;;;;;;;5033907;28;20451;-73
2022/01/09 00:17:06;;;;;;;0.88;0.63;;;;;;;;;;5032646;28;20456;-73
2022/01/09 00:19:32;;;;;;;0.80;0.60;;;;;;;;;;5033587;28;20499;-73
2022/01/09 00:21:58;;;;;;;2.35;0.70;;;;;;;;;;5042970;28;20472;-73
2022/01/09 00:24:24;;;;;;;2.38;0.60;;;;;;;;;;5052423;28;20024;-73
2022/01/09 00:26:50;;;;;;;1.55;0.65;;;;;;;;;;5053496;28;20025;-73
2022/01/09 00:29:16;;;;;;;1.58;0.60;;;;;;;;;;5053758;28;20037;-73
2022/01/09 00:31:42;;;;;;;1.23;0.68;;;;;;;;;;5053457;28;20032;-73
2022/01/09 00:34:08;;;;;;;3.00;0.75;;;;;;;;;;5053872;28;20025;-73
2022/01/09 00:36:34;;;;;;;2.22;0.60;;;;;;;;;;5053573;28;20565;-73
2022/01/09 00:39:00;;;;;;;1.63;0.60;;;;;;;;;;5053558;28;20036;-73
2022/01/09 00:41:26;;;;;;;1.63;0.60;;;;;;;;;;5045118;28;20017;-73
2022/01/09 00:43:53;;;;;;;0.60;0.40;;;;;;;;;;5032389;28;20063;-73
2022/01/09 00:46:19;;;;;;;1.08;0.40;;;;;;;;;;5033597;28;20033;-73
2022/01/09 00:48:45;;;;;;;0.65;0.40;;;;;;;;;;5033861;28;20480;-73
2022/01/09 00:51:11;;;;;;;1.98;0.57;;;;;;;;;;5032029;28;20431;-73
2022/01/09 00:53:37;;;;;;;0.80;0.50;;;;;;;;;;5033825;28;20033;-73
2022/01/09 00:56:03;;;;;;;1.20;0.70;;;;;;;;;;5033463;28;20049;-73
2022/01/09 00:58:29;;;;;;;2.25;0.50;;;;;;;;;;5033560;28;20397;-73
2022/01/09 01:00:55;;;;;;;0.82;0.40;;;;;;;;;;5032705;28;20026;-73
2022/01/09 01:03:21;;;;;;;1.15;0.52;;;;;;;;;;5033498;28;20029;-73
2022/01/09 01:05:47;;;;;;;1.00;0.40;;;;;;;;;;5044295;28;20036;-73
2022/01/09 01:08:13;;;;;;;1.70;0.60;;;;;;;;;;5053522;28;20498;-73
2022/01/09 01:10:39;;;;;;;1.70;0.57;;;;;;;;;;5052992;28;20458;-73
2022/01/09 01:13:05;;;;;;;1.83;0.40;;;;;;;;;;5053167;28;20056;-73
2022/01/09 01:15:32;;;;;;;1.38;0.50;;;;;;;;;;5053620;28;20091;-73
2022/01/09 01:17:58;;;;;;;0.95;0.50;;;;;;;;;;5052883;28;20036;-73
2022/01/09 01:20:24;;;;;;;0.70;0.30;;;;;;;;;;5053338;28;20025;-73
2022/01/09 01:22:51;;;;;;;1.50;0.50;;;;;;;;;;5053545;28;20396;-73
2022/01/09 01:25:21;;;;;;;1.10;0.63;;;;;;;;;;5053441;28;20535;-73
2022/01/09 01:27:47;;;;;;;1.55;0.50;;;;;;;;;;5053099;28;20024;-73
2022/01/09 01:30:14;;;;;;;1.05;0.45;;;;;;;;;;5053271;28;20029;-73
2022/01/09 01:32:41;;;;;;;0.40;0.30;;;;;;;;;;5053394;28;20044;-73
2022/01/09 01:35:07;;;;;;;1.00;0.50;;;;;;;;;;5053210;28;20060;-73
2022/01/09 01:37:37;;;;;;;0.80;0.40;;;;;;;;;;5053527;28;20424;-73
2022/01/09 01:40:04;;;;;;;1.33;0.60;;;;;;;;;;5051559;28;20021;-73
2022/01/09 01:42:30;;;;;;;1.55;0.50;;;;;;;;;;5035106;28;20017;-73
2022/01/09 01:44:56;;;;;;;1.95;0.30;;;;;;;;;;5033458;28;20030;-73
2022/01/09 01:47:22;;;;;;;0.70;0.43;;;;;;;;;;5033033;28;20071;-73
2022/01/09 01:49:48;;;;;;;2.25;0.50;;;;;;;;;;5033521;28;20112;-73
2022/01/09 01:52:15;;;;;;;0.82;0.30;;;;;;;;;;5033350;28;20084;-73
2022/01/09 01:54:43;;;;;;;0.50;0.40;;;;;;;;;;5033024;28;20037;-73
2022/01/09 01:57:09;;;;;;;1.20;0.50;;;;;;;;;;5033334;28;20084;-73
2022/01/09 01:59:35;;;;;;;0.50;0.30;;;;;;;;;;5033384;28;20385;-73
2022/01/09 02:02:01;;;;;;;1.02;0.45;;;;;;;;;;5033544;28;20062;-72
2022/01/09 02:04:28;;;;;;;0.65;0.50;;;;;;;;;;5033086;28;20017;-73
2022/01/09 02:06:54;;;;;;;1.45;0.40;;;;;;;;;;5031774;28;20094;-73
2022/01/09 02:09:21;;;;;;;0.82;0.40;;;;;;;;;;5033546;28;20599;-73
2022/01/09 02:11:47;;;;;;;0.90;0.32;;;;;;;;;;5035645;28;20100;-73
2022/01/09 02:14:13;;;;;;;1.05;0.43;;;;;;;;;;5037236;28;20033;-73
2022/01/09 02:16:40;;;;;;;1.17;0.50;;;;;;;;;;5036877;28;20480;-73
2022/01/09 02:19:08;;;;;;;0.73;0.30;;;;;;;;;;5036939;28;20017;-73
2022/01/09 02:21:34;;;;;;;1.23;0.60;;;;;;;;;;5035468;28;20104;-73
2022/01/09 02:24:00;;;;;;;2.30;0.68;;;;;;;;;;5036459;28;20021;-73
2022/01/09 02:26:26;;;;;;;2.28;0.50;;;;;;;;;;5045367;28;20447;-73
2022/01/09 02:28:53;;;;;;;1.15;0.50;;;;;;;;;;5056207;28;20032;-73
2022/01/09 02:31:19;;;;;;;2.95;0.52;;;;;;;;;;5040888;28;20039;-73
2022/01/09 02:33:45;;;;;;;1.00;0.40;;;;;;;;;;5035165;28;20441;-73
2022/01/09 02:36:11;;;;;;;1.83;0.50;;;;;;;;;;5035099;28;20056;-73
2022/01/09 02:38:38;;;;;;;0.70;0.47;;;;;;;;;;5039802;28;20021;-73
2022/01/09 02:41:04;;;;;;;0.70;0.30;;;;;;;;;;5051403;28;20025;-73
2022/01/09 02:43:30;;;;;;;0.93;0.50;;;;;;;;;;5034868;28;20021;-73
2022/01/09 02:48:39;;;;;;;1.70;0.50;;;;;;;;;;5036222;28;20037;-73
2022/01/09 02:51:11;;;;;;;2.05;0.73;;;;;;;;;;5035761;28;20025;-73
2022/01/09 02:53:38;;;;;;;1.23;0.52;;;;;;;;;;5035825;28;20032;-73
2022/01/09 02:56:05;;;;;;;2.22;0.57;;;;;;;;;;5042721;28;20053;-73
2022/01/09 02:58:32;;;;;;;1.33;0.70;;;;;;;;;;5055632;28;20059;-73
2022/01/09 03:00:58;;;;;;;1.90;0.70;;;;;;;;;;5056033;28;20028;-73
2022/01/09 03:03:25;;;;;;;2.55;0.57;;;;;;;;;;5056195;28;20021;-73
2022/01/09 03:05:51;;;;;;;1.27;0.70;;;;;;;;;;5044390;28;20544;-73
2022/01/09 03:08:17;;;;;;;1.10;0.65;;;;;;;;;;5035679;28;20030;-73
2022/01/09 03:10:43;;;;;;;1.20;0.55;;;;;;;;;;5035643;28;20040;-73
2022/01/09 03:13:09;;;;;;;4.13;0.82;;;;;;;;;;5035573;28;20025;-73
2022/01/09 03:15:35;;;;;;;1.73;0.60;;;;;;;;;;5036135;28;20404;-73
2022/01/09 03:18:01;;;;;;;1.67;0.75;;;;;;;;;;5035282;28;20025;-73
2022/01/09 03:20:28;;;;;;;1.75;0.80;;;;;;;;;;5035831;28;20068;-73
2022/01/09 03:22:55;;;;;;;2.65;0.85;;;;;;;;;;5034663;28;20437;-73
2022/01/09 03:25:21;;;;;;;2.13;0.80;;;;;;;;;;5035107;28;20116;-73
2022/01/09 03:27:49;;;;;;;3.28;0.80;;;;;;;;;;5035094;28;20024;-73
2022/01/09 03:30:16;;;;;;;1.27;0.60;;;;;;;;;;5042243;28;20087;-73
2022/01/09 03:32:42;;;;;;;2.45;0.80;;;;;;;;;;5055014;28;20035;-73
2022/01/09 03:35:10;;;;;;;2.67;0.90;;;;;;;;;;5055448;28;20074;-73
2022/01/09 03:37:36;;;;;;;3.00;0.90;;;;;;;;;;5055218;28;20029;-73
2022/01/09 03:40:04;;;;;;;3.70;0.85;;;;;;;;;;5055290;28;20511;-73
2022/01/09 03:42:30;;;;;;;1.88;0.70;;;;;;;;;;5038187;28;20041;-73
2022/01/09 03:44:56;;;;;;;2.50;0.80;;;;;;;;;;5033877;28;20026;-73
2022/01/09 03:47:22;;;;;;;2.70;1.00;;;;;;;;;;5034880;28;20105;-73
2022/01/09 03:49:50;;;;;;;3.13;0.90;;;;;;;;;;5034668;28;20503;-73
2022/01/09 03:52:16;;;;;;;2.72;1.00;;;;;;;;;;5034982;28;20029;-73
2022/01/09 03:54:42;;;;;;;1.88;0.63;;;;;;;;;;5034670;28;20108;-73
2022/01/09 03:57:08;;;;;;;2.78;0.90;;;;;;;;;;5034410;28;20389;-73
2022/01/09 03:59:35;;;;;;;3.35;1.00;;;;;;;;;;5034986;28;20079;-73
2022/01/09 04:02:01;;;;;;;3.28;0.80;;;;;;;;;;5035070;28;20031;-73
2022/01/09 04:04:27;;;;;;;3.95;1.17;;;;;;;;;;5034289;28;20100;-73
2022/01/09 04:06:54;;;;;;;3.25;1.00;;;;;;;;;;5054334;28;20028;-73
2022/01/09 04:09:27;;;;;;;3.53;0.90;;;;;;;;;;5054199;28;20025;-73
2022/01/09 04:12:01;;;;;;;3.88;1.42;;;;;;;;;;5054300;28;20051;-73
2022/01/09 04:14:27;;;;;;;2.95;1.10;;;;;;;;;;5053319;28;20151;-73
2022/01/09 04:16:53;;;;;;;2.40;0.80;;;;;;;;;;5054104;28;20055;-73
2022/01/09 04:19:19;;;;;;;2.35;0.90;;;;;;;;;;5054489;28;20079;-73
2022/01/09 04:21:46;;;;;;;5.82;1.10;;;;;;;;;;5054382;28;20024;-73
2022/01/09 04:24:12;;;;;;;2.55;1.10;;;;;;;;;;5054399;28;20029;-73
2022/01/09 04:26:38;;;;;;;2.75;1.08;;;;;;;;;;5054466;28;20020;-73
2022/01/09 04:29:05;;;;;;;3.10;0.98;;;;;;;;;;5054039;28;20480;-73
2022/01/09 04:31:31;;;;;;;2.78;0.90;;;;;;;;;;5053939;28;20403;-73
2022/01/09 04:33:57;;;;;;;2.67;0.85;;;;;;;;;;5053559;28;20052;-73
2022/01/09 04:36:24;;;;;;;3.15;0.88;;;;;;;;;;5053769;28;20020;-73
2022/01/09 04:38:51;;;;;;;4.18;1.10;;;;;;;;;;5053897;28;20029;-73
2022/01/09 04:41:17;;;;;;;1.98;0.80;;;;;;;;;;5047165;28;20046;-73
2022/01/09 04:43:44;;;;;;;3.30;1.10;;;;;;;;;;5033858;28;20028;-73
2022/01/09 04:46:12;;;;;;;2.50;0.77;;;;;;;;;;5034267;28;20117;-73
2022/01/09 04:48:38;;;;;;;2.17;0.80;;;;;;;;;;5034127;28;20040;-73
2022/01/09 04:51:09;;;;;;;3.65;1.20;;;;;;;;;;5032635;28;20040;-73
2022/01/09 04:53:35;;;;;;;3.28;1.27;;;;;;;;;;5033961;28;20033;-73
2022/01/09 04:56:01;;;;;;;1.63;0.80;;;;;;;;;;5034106;28;20041;-73
2022/01/09 04:58:27;;;;;;;4.25;0.82;;;;;;;;;;5033411;28;20506;-73
2022/01/09 05:00:53;;;;;;;4.00;1.10;;;;;;;;;;5034511;28;20025;-73
2022/01/09 05:03:20;;;;;;;4.65;1.20;;;;;;;;;;5033608;28;20083;-73
2022/01/09 05:05:46;;;;;;;4.22;1.23;;;;;;;;;;5044274;28;20025;-73
2022/01/09 05:08:12;;;;;;;3.15;0.95;;;;;;;;;;5053470;28;20029;-73
2022/01/09 05:10:38;;;;;;;2.22;0.90;;;;;;;;;;5053467;28;20024;-73
2022/01/09 05:13:04;;;;;;;2.92;1.05;;;;;;;;;;5053381;28;20032;-73
2022/01/09 05:15:30;;;;;;;3.88;1.40;;;;;;;;;;5053361;28;20516;-73
2022/01/09 05:18:00;;;;;;;2.88;0.70;;;;;;;;;;5052294;28;20036;-73
2022/01/09 05:20:26;;;;;;;2.60;1.10;;;;;;;;;;5053455;28;20024;-73
2022/01/09 05:22:52;;;;;;;1.45;0.90;;;;;;;;;;5053284;28;20021;-73
2022/01/09 05:25:18;;;;;;;2.53;1.05;;;;;;;;;;5053467;28;20076;-73
2022/01/09 05:27:44;;;;;;;2.45;0.90;;;;;;;;;;5051646;28;20025;-73
2022/01/09 05:30:11;;;;;;;2.33;0.50;;;;;;;;;;5046623;28;20396;-73
2022/01/09 05:32:37;;;;;;;3.85;1.33;;;;;;;;;;5033535;28;20480;-73
2022/01/09 05:35:03;;;;;;;2.25;0.85;;;;;;;;;;5033646;28;20124;-73
2022/01/09 05:37:30;;;;;;;2.47;1.10;;;;;;;;;;5033816;28;20503;-73
2022/01/09 05:39:56;;;;;;;2.08;0.80;;;;;;;;;;5033117;28;20014;-73
2022/01/09 05:42:22;;;;;;;3.67;1.30;;;;;;;;;;5032187;28;20045;-73
2022/01/09 05:44:48;;;;;;;1.83;0.80;;;;;;;;;;5033499;28;20036;-73
2022/01/09 05:47:14;;;;;;;2.05;0.90;;;;;;;;;;5037071;28;20120;-73
2022/01/09 05:49:40;;;;;;;3.42;0.90;;;;;;;;;;5037497;28;20032;-73
2022/01/09 05:52:06;;;;;;;2.65;1.15;;;;;;;;;;5037580;28;20036;-73
2022/01/09 05:54:33;;;;;;;4.40;1.67;;;;;;;;;;5037003;28;20057;-73
2022/01/09 05:56:59;;;;;;;4.30;0.98;;;;;;;;;;5037226;28;20080;-73
2022/01/09 05:59:25;;;;;;;1.70;0.70;;;;;;;;;;5036939;28;20022;-73
2022/01/09 06:01:51;;;;;;;4.55;1.10;;;;;;;;;;5037213;28;20117;-73
2022/01/09 06:04:17;;;;;;;2.30;0.80;;;;;;;;;;5036537;28;20021;-73
2022/01/09 06:06:43;;;;;;;3.45;1.02;;;;;;;;;;5055560;28;20021;-73
2022/01/09 06:09:10;;;;;;;2.67;1.00;;;;;;;;;;5056580;28;20021;-72
2022/01/09 06:11:36;;;;;;;4.72;1.13;;;;;;;;;;5056654;28;20545;-72
2022/01/09 06:14:02;;;;;;;3.92;1.00;;;;;;;;;;5056809;28;20048;-72
2022/01/09 06:16:29;;;;;;;2.05;0.93;;;;;;;;;;5056444;28;20024;-73
2022/01/09 06:18:55;;;;;;;3.17;1.13;;;;;;;;;;5054692;28;20389;-73
2022/01/09 06:21:21;;;;;;;3.28;1.20;;;;;;;;;;5056564;28;20032;-73
2022/01/09 06:23:47;;;;;;;2.72;1.10;;;;;;;;;;5056531;28;20392;-73
2022/01/09 06:26:13;;;;;;;3.85;1.10;;;;;;;;;;5056096;28;20029;-73
2022/01/09 06:28:39;;;;;;;3.28;1.00;;;;;;;;;;5056207;28;20531;-73
2022/01/09 06:31:05;;;;;;;2.35;0.73;;;;;;;;;;5042033;28;20068;-72
2022/01/09 06:33:31;;;;;;;2.65;0.90;;;;;;;;;;5036165;28;20029;-72
2022/01/09 06:35:57;;;;;;;2.50;1.20;;;;;;;;;;5035221;28;20412;-72
2022/01/09 06:38:23;;;;;;;2.90;0.95;;;;;;;;;;5036529;28;20048;-72
2022/01/09 06:40:49;;;;;;;3.05;1.35;;;;;;;;;;5039181;28;20087;-73
2022/01/09 06:43:15;;;;;;;3.40;1.10;;;;;;;;;;5056411;28;20021;-73
2022/01/09 06:45:42;;;;;;;3.67;1.08;;;;;;;;;;5054933;28;20036;-73
2022/01/09 06:48:08;;;;;;;2.67;1.15;;;;;;;;;;5054995;28;20108;-73
2022/01/09 06:50:34;;;;;;;2.75;1.10;;;;;;;;;;5056003;28;20503;-73
2022/01/09 06:53:00;;;;;;;5.13;1.30;;;;;;;;;;5056160;28;20025;-73
2022/01/09 06:55:26;;;;;;;3.15;1.10;;;;;;;;;;5055788;28;20090;-73
2022/01/09 06:57:54;;;;;;;3.58;1.13;;;;;;;;;;5054762;28;20041;-73
2022/01/09 07:00:20;;;;;;;4.18;1.17;;;;;;;;;;5055522;28;20021;-73
2022/01/09 07:02:46;;;;;;;4.90;1.52;;;;;;;;;;5055664;28;20520;-73
2022/01/09 07:05:13;;;;;;;4.25;1.08;;;;;;;;;;5049421;28;20370;-73
2022/01/09 07:07:39;;;;;;;2.35;1.02;;;;;;;;;;5035812;28;20524;-73
2022/01/09 07:10:05;;;;;;;7.45;2.03;;;;;;;;;;5035516;28;20405;-73
2022/01/09 07:12:32;;;;;;;3.95;1.27;;;;;;;;;;5034088;28;20029;-73
2022/01/09 07:14:58;;;;;;;3.55;1.17;;;;;;;;;;5034065;28;20451;-73
2022/01/09 07:17:24;;;;;;;4.15;1.23;;;;;;;;;;5035725;28;20048;-73
2022/01/09 07:19:50;;;;;;;3.90;1.30;;;;;;;;;;5035262;28;20033;-73
2022/01/09 07:22:16;;;;;;;2.85;1.35;;;;;;;;;;5035203;28;20029;-73
2022/01/09 07:24:42;;;;;;;4.82;1.35;;;;;;;;;;5035467;28;20049;-73
2022/01/09 07:27:08;;;;;;;4.85;1.15;;;;;;;;;;5035515;28;20036;-73
2022/01/09 07:29:34;;;;;;;3.38;1.35;;;;;;;;;;5035514;28;20029;-72
2022/01/09 07:32:01;;;;;;;3.53;1.50;;;;;;;;;;5035561;28;20462;-72
2022/01/09 07:34:27;;;;;;;4.35;1.58;;;;;;;;;;5035476;28;20499;-72
2022/01/09 07:36:53;;;;;;;4.05;1.45;;;;;;;;;;5035787;28;20545;-72
2022/01/09 07:39:19;;;;;;;3.88;1.30;;;;;;;;;;5035540;28;20615;-73
2022/01/09 07:41:46;;;;;;;4.47;1.67;;;;;;;;;;5045846;28;20448;-73
2022/01/09 07:44:12;;;;;;;5.88;1.52;;;;;;;;;;5054895;28;20115;-73
2022/01/09 07:46:39;;;;;;;3.25;1.40;;;;;;;;;;5055216;28;20021;-72
2022/01/09 07:49:05;;;;;;;5.45;1.52;;;;;;;;;;5054760;28;20392;-72
2022/01/09 07:51:31;;;;;;;3.63;1.35;;;;;;;;;;5054706;28;20605;-72
2022/01/09 07:53:57;;;;;;;4.78;1.73;;;;;;;;;;5054688;28;20056;-72
2022/01/09 07:56:23;;;;;;;5.43;1.23;;;;;;;;;;5054193;28;20060;-72
2022/01/09 07:58:49;;;;;;;5.18;1.50;;;;;;;;;;5055134;28;20480;-72
2022/01/09 08:01:15;;;;;;;3.38;1.75;;;;;;;;;;5054557;28;20501;-72
2022/01/09 08:03:42;;;;;;;4.07;1.20;;;;;;;;;;5054946;28;20029;-72
2022/01/09 08:06:08;;;;;;;5.32;1.40;;;;;;;;;;5039225;28;20025;-73
2022/01/09 08:08:34;;;;;;;6.15;1.45;;;;;;;;;;5034516;28;20044;-73
2022/01/09 08:11:00;;;;;;;6.35;1.63;;;;;;;;;;5034383;28;20022;-73
2022/01/09 08:13:26;;;;;;;6.88;1.60;;;;;;;;;;5034754;28;20112;-73
2022/01/09 08:15:52;;;;;;;3.70;1.25;;;;;;;;;;5033924;28;20022;-73
2022/01/09 08:18:18;;;;;;;4.85;1.17;;;;;;;;;;5033008;28;20186;-73
2022/01/09 08:20:44;;;;;;;3.55;1.23;;;;;;;;;;5033714;28;20026;-72
2022/01/09 08:23:10;;;;;;;3.63;1.45;;;;;;;;;;5034265;28;20027;-72
2022/01/09 08:25:36;;;;;;;3.42;1.13;;;;;;;;;;5033933;28;20026;-72
2022/01/09 08:28:02;;;;;;;2.95;1.50;;;;;;;;;;5033123;28;20029;-72
2022/01/09 08:30:28;;;;;;;6.32;1.85;;;;;;;;;;5043449;28;20025;-72
2022/01/09 08:32:55;;;;;;;5.30;1.35;;;;;;;;;;5054375;28;20104;-72
2022/01/09 08:35:22;;;;;;;5.07;1.48;;;;;;;;;;5054181;28;20445;-72
2022/01/09 08:37:48;;;;;;;4.82;1.25;;;;;;;;;;5053627;28;20036;-72
2022/01/09 08:40:22;;;;;;;4.78;1.45;;;;;;;;;;5052751;28;20094;-72
2022/01/09 08:42:49;;;;;;;5.68;1.40;;;;;;;;;;5033343;28;20064;-72
2022/01/09 08:45:15;;;;;;;4.35;1.30;;;;;;;;;;5033972;28;20029;-72
2022/01/09 08:47:43;;;;;;;6.75;1.50;;;;;;;;;;5034064;28;20057;-72
2022/01/09 08:50:10;;;;;;;3.85;1.33;;;;;;;;;;5034375;28;20411;-72
2022/01/09 08:52:36;;;;;;;2.90;1.17;;;;;;;;;;5033577;28;20028;-72
2022/01/09 08:55:04;;;;;;;3.60;1.27;;;;;;;;;;5033716;28;20029;-72
2022/01/09 08:57:30;;;;;;;4.90;1.50;;;;;;;;;;5033515;28;20393;-72
2022/01/09 08:59:56;;;;;;;5.95;1.70;;;;;;;;;;5034066;28;20079;-72
2022/01/09 09:02:22;;;;;;;4.90;1.27;;;;;;;;;;5033184;28;20556;-72
2022/01/09 09:04:48;;;;;;;4.68;1.35;;;;;;;;;;5034646;28;20373;-72
2022/01/09 09:07:18;;;;;;;4.28;1.27;;;;;;;;;;5053437;28;20045;-73
2022/01/09 09:09:44;;;;;;;2.90;1.10;;;;;;;;;;5053690;28;20083;-73
2022/01/09 09:12:10;;;;;;;3.13;1.30;;;;;;;;;;5053440;28;20068;-73
2022/01/09 09:14:37;;;;;;;3.60;1.20;;;;;;;;;;5052289;28;20032;-73
2022/01/09 09:17:03;;;;;;;3.20;1.20;;;;;;;;;;5053115;28;20063;-73
2022/01/09 09:19:30;;;;;;;3.75;1.13;;;;;;;;;;5052955;28;20024;-73
2022/01/09 09:21:56;;;;;;;3.08;1.17;;;;;;;;;;5052000;28;20104;-73
2022/01/09 09:24:22;;;;;;;3.20;1.25;;;;;;;;;;5053148;28;20036;-73
2022/01/09 09:26:48;;;;;;;4.03;1.33;;;;;;;;;;5052980;28;20054;-73
2022/01/09 09:29:14;;;;;;;4.57;1.40;;;;;;;;;;5053221;28;20021;-73
2022/01/09 09:31:40;;;;;;;3.50;1.45;;;;;;;;;;5033638;28;20044;-72
2022/01/09 09:34:08;;;;;;;3.00;1.33;;;;;;;;;;5031790;28;20017;-72
2022/01/09 09:36:34;;;;;;;4.40;1.30;;;;;;;;;;5032792;28;20026;-72
2022/01/09 09:39:01;;;;;;;4.10;1.40;;;;;;;;;;5031666;28;20029;-72
2022/01/09 09:41:27;;;;;;;3.50;1.17;;;;;;;;;;5040808;28;20071;-72
2022/01/09 09:43:53;;;;;;;4.00;1.40;;;;;;;;;;5051844;28;20377;-72
2022/01/09 09:46:26;;;;;;;3.83;1.23;;;;;;;;;;5052959;28;20404;-72
2022/01/09 09:48:55;;;;;;;3.33;1.40;;;;;;;;;;5052806;28;20040;-72
2022/01/09 09:51:27;;;;;;;3.92;1.38;;;;;;;;;;5052369;28;20053;-72
2022/01/09 09:53:53;;;;;;;3.58;1.23;;;;;;;;;;5051414;28;20029;-72
2022/01/09 09:56:19;;;;;;;4.00;1.50;;;;;;;;;;5052844;28;20049;-72
2022/01/09 09:58:47;;;;;;;2.95;1.38;;;;;;;;;;5052425;28;20112;-72
2022/01/09 10:01:29;;;;;;;2.70;1.48;;;;;;;;;;5052900;28;20029;-72
2022/01/09 10:03:56;;;;;;;2.67;1.17;;;;;;;;;;5052791;28;20025;-72
2022/01/09 10:06:35;;;;;;;3.55;1.35;;;;;;;;;;5035957;28;20400;-72
2022/01/09 10:09:06;;;;;;;4.15;1.58;;;;;;;;;;5032771;28;20109;-72
2022/01/09 10:11:41;;;;;;;3.42;1.33;;;;;;;;;;5033117;28;20022;-72
2022/01/09 10:14:11;;;;;;;3.97;1.48;;;;;;;;;;5032737;28;20029;-72
2022/01/09 10:16:37;;;;;;;2.13;1.13;;;;;;;;;;5032475;28;20041;-72
2022/01/09 10:19:04;;;;;;;4.82;1.63;;;;;;;;;;5031284;28;20037;-72
2022/01/09 10:21:30;;;;;;;4.07;1.40;;;;;;;;;;5032956;28;20025;-72
2022/01/09 10:24:00;;;;;;;3.13;1.42;;;;;;;;;;5032699;28;20026;-72
2022/01/09 10:26:27;;;;;;;2.80;1.40;;;;;;;;;;5032779;28;20041;-72
2022/01/09 10:28:53;;;;;;;2.47;1.40;;;;;;;;;;5032530;28;20403;-72
2022/01/09 10:31:19;;;;;;;2.78;1.15;;;;;;;;;;5049157;28;20021;-72
2022/01/09 10:34:01;;;;;;;3.92;1.60;;;;;;;;;;5055145;28;20392;-72
2022/01/09 10:36:37;;;;;;;3.03;1.30;;;;;;;;;;5056423;28;20025;-73
2022/01/09 10:39:08;;;;;;;3.35;1.30;;;;;;;;;;5055807;28;20492;-73
2022/01/09 10:41:56;;;;;;;3.63;1.58;;;;;;;;;;5047278;28;20038;-73
2022/01/09 10:44:22;;;;;;;2.70;1.35;;;;;;;;;;5035935;28;20032;-73
2022/01/09 10:46:57;;;;;;;4.78;2.05;;;;;;;;;;5036131;28;20484;-73
2022/01/09 10:49:23;;;;;;;4.22;1.27;;;;;;;;;;5035801;28;20100;-73
2022/01/09 10:51:50;;;;;;;2.63;1.20;;;;;;;;;;5036087;28;20431;-73
2022/01/09 10:54:31;;;;;;;4.80;1.50;;;;;;;;;;5035485;28;20029;-73
2022/01/09 10:57:15;;;;;;;3.20;1.50;;;;;;;;;;5034147;28;20037;-73
2022/01/09 10:59:41;;;;;;;4.63;1.67;;;;;;;;;;5035945;28;20032;-73
2022/01/09 11:02:07;;;;;;;3.92;1.48;;;;;;;;;;5035902;28;20030;-73
2022/01/09 11:04:34;;;;;;;4.03;1.60;;;;;;;;;;5034892;28;20080;-73
2022/01/09 11:07:00;;;;;;;4.28;1.80;;;;;;;;;;5055785;28;20017;-73
2022/01/09 11:09:29;;;;;;;4.78;1.80;;;;;;;;;;5055374;28;20086;-73
2022/01/09 11:11:56;;;;;;;3.58;1.65;;;;;;;;;;5054831;28;20070;-73
2022/01/09 11:14:23;;;;;;;2.25;1.20;;;;;;;;;;5055492;28;20029;-73
2022/01/09 11:16:51;;;;;;;4.07;1.40;;;;;;;;;;5055569;28;20021;-72
2022/01/09 11:19:22;;;;;;;5.13;2.10;;;;;;;;;;5055486;28;20033;-73
2022/01/09 11:21:49;;;;;;;4.32;1.55;;;;;;;;;;5054003;28;20029;-73
2022/01/09 11:24:26;;;;;;;3.88;1.42;;;;;;;;;;5055778;28;20104;-73
2022/01/09 11:26:59;;;;;;;4.15;1.90;;;;;;;;;;5056077;28;20021;-73
2022/01/09 11:29:43;;;;;;;4.13;2.07;;;;;;;;;;5054845;28;20019;-72
2022/01/09 11:32:16;;;;;;;4.93;2.00;;;;;;;;;;5035350;28;20080;-72
2022/01/09 11:34:47;;;;;;;4.28;1.38;;;;;;;;;;5033801;28;20574;-72
2022/01/09 11:37:27;;;;;;;3.90;1.55;;;;;;;;;;5033818;28;20400;-72
2022/01/09 11:39:54;;;;;;;3.13;1.45;;;;;;;;;;5035029;28;20112;-73
2022/01/09 11:42:20;;;;;;;5.45;1.90;;;;;;;;;;5050531;28;20523;-73
2022/01/09 11:44:48;;;;;;;3.88;1.55;;;;;;;;;;5055083;28;20025;-73
2022/01/09 11:47:15;;;;;;;3.72;1.30;;;;;;;;;;5055237;28;20098;-73
2022/01/09 11:49:52;;;;;;;3.83;1.98;;;;;;;;;;5054699;28;20036;-73
2022/01/09 11:52:18;;;;;;;4.78;1.70;;;;;;;;;;5054925;28;20021;-73
2022/01/09 11:54:49;;;;;;;5.88;2.25;;;;;;;;;;5054490;28;20078;-73
2022/01/09 11:57:20;;;;;;;3.92;1.85;;;;;;;;;;5054342;28;20044;-73
2022/01/09 11:59:48;;;;;;;3.50;1.80;;;;;;;;;;5054554;28;20527;-72
2022/01/09 12:02:17;;;;;;;5.05;1.60;;;;;;;;;;5054865;28;20491;-72
2022/01/09 12:04:45;;;;;;;4.35;2.00;;;;;;;;;;5052619;28;20037;-73
2022/01/09 12:07:42;;;;;;;4.15;1.80;;;;;;;;;;5035521;28;20079;-73
2022/01/09 12:10:17;;;;;;;3.83;1.80;;;;;;;;;;5034289;28;20018;-72
2022/01/09 12:12:46;;;;;;;5.28;2.13;;;;;;;;;;5034713;28;20021;-72
2022/01/09 12:15:12;;;;;;;3.55;1.70;;;;;;;;;;5034803;28;20079;-72
2022/01/09 12:17:40;;;;;;;3.97;1.98;;;;;;;;;;5034559;28;20029;-72
2022/01/09 12:20:15;;;;;;;4.43;1.63;;;;;;;;;;5032973;28;20055;-72
2022/01/09 12:22:45;;;;;;;4.03;1.73;;;;;;;;;;5034636;28;20481;-72
2022/01/09 12:28:02;;;;;;;5.15;1.83;;;;;;;;;;5034380;28;20067;-72
2022/01/09 12:30:32;;;;;;;4.03;1.80;;;;;;;;;;5043181;28;20032;-72
2022/01/09 12:32:59;;;;;;;4.22;2.13;;;;;;;;;;5054247;28;20071;-72
2022/01/09 12:35:25;;;;;;;5.03;2.20;;;;;;;;;;5054019;28;20025;-72
2022/01/09 12:37:53;;;;;;;2.90;1.63;;;;;;;;;;5054381;28;20056;-72
2022/01/09 12:40:20;;;;;;;3.30;1.50;;;;;;;;;;5053681;28;20048;-72
2022/01/09 12:42:47;;;;;;;3.55;1.83;;;;;;;;;;5034913;28;20026;-72
2022/01/09 12:45:24;;;;;;;5.18;2.15;;;;;;;;;;5034004;28;20554;-72
2022/01/09 12:47:50;;;;;;;4.28;1.75;;;;;;;;;;5034165;28;20093;-72
2022/01/09 12:50:17;;;;;;;3.85;1.80;;;;;;;;;;5033825;28;20022;-72
2022/01/09 12:52:43;;;;;;;4.30;1.98;;;;;;;;;;5033815;28;20492;-72
2022/01/09 12:55:11;;;;;;;5.57;1.77;;;;;;;;;;5033048;28;20393;-72
2022/01/09 12:57:50;;;;;;;3.47;1.52;;;;;;;;;;5033616;28;20110;-72
2022/01/09 13:00:16;;;;;;;4.07;1.73;;;;;;;;;;5032174;28;20029;-72
2022/01/09 13:02:52;;;;;;;4.68;1.98;;;;;;;;;;5032474;28;20029;-72
2022/01/09 13:05:22;;;;;;;3.33;1.85;;;;;;;;;;5040254;28;20013;-72
2022/01/09 13:07:55;;;;;;;4.22;1.95;;;;;;;;;;5053597;28;20040;-72
2022/01/09 13:10:27;;;;;;;4.82;2.22;;;;;;;;;;5051920;28;20130;-72
2022/01/09 13:13:20;;;;;;;2.85;1.45;;;;;;;;;;5053862;28;20036;-72
2022/01/09 13:15:46;;;;;;;3.42;1.63;;;;;;;;;;5050878;28;20033;-72
2022/01/09 13:18:12;;;;;;;4.03;1.80;;;;;;;;;;5053437;28;20112;-72
2022/01/09 13:20:38;;;;;;;5.70;2.05;;;;;;;;;;5053539;28;20028;-72
2022/01/09 13:23:05;;;;;;;4.70;1.73;;;;;;;;;;5054103;28;20017;-72
2022/01/09 13:25:41;;;;;;;5.53;1.88;;;;;;;;;;5053018;28;20066;-72
2022/01/09 13:28:07;;;;;;;3.38;1.92;;;;;;;;;;5052203;28;20037;-72
2022/01/09 13:30:33;;;;;;;4.18;2.00;;;;;;;;;;5043292;28;20424;-72
2022/01/09 13:33:03;;;;;;;4.40;1.92;;;;;;;;;;5032516;28;20029;-72
2022/01/09 13:35:29;;;;;;;6.22;2.35;;;;;;;;;;5033444;28;20025;-72
2022/01/09 13:37:56;;;;;;;3.55;1.73;;;;;;;;;;5031907;28;20029;-72
2022/01/09 13:40:22;;;;;;;4.43;2.17;;;;;;;;;;5033549;28;20029;-72
2022/01/09 13:42:49;;;;;;;3.45;1.90;;;;;;;;;;5052714;28;20365;-72
2022/01/09 13:45:18;;;;;;;3.28;2.03;;;;;;;;;;5053462;28;20029;-72
2022/01/09 13:47:49;;;;;;;4.03;2.03;;;;;;;;;;5052086;28;20036;-72
2022/01/09 13:50:22;;;;;;;4.03;1.90;;;;;;;;;;5053128;28;20029;-72
2022/01/09 13:52:49;;;;;;;4.25;1.85;;;;;;;;;;5052967;28;20029;-72
2022/01/09 13:55:18;;;;;;;3.95;2.05;;;;;;;;;;5053386;28;20029;-72
2022/01/09 13:58:01;;;;;;;3.97;1.75;;;;;;;;;;5051184;28;20048;-72
2022/01/09 14:00:27;;;;;;;4.78;1.92;;;;;;;;;;5053134;28;20067;-72
2022/01/09 14:02:55;;;;;;;4.82;1.90;;;;;;;;;;5053099;28;20025;-72
2022/01/09 14:05:23;;;;;;;4.20;1.90;;;;;;;;;;5045927;28;20706;-72
2022/01/09 14:07:51;;;;;;;3.03;1.67;;;;;;;;;;5035403;28;20052;-72
2022/01/09 14:10:17;;;;;;;4.38;2.05;;;;;;;;;;5036827;28;20025;-72
2022/01/09 14:12:44;;;;;;;3.90;2.10;;;;;;;;;;5036685;28;20032;-72
2022/01/09 14:15:14;;;;;;;3.17;1.77;;;;;;;;;;5037031;28;20029;-72
2022/01/09 14:17:44;;;;;;;3.53;1.95;;;;;;;;;;5036833;28;20100;-72
2022/01/09 14:20:13;;;;;;;4.60;2.00;;;;;;;;;;5036909;28;20124;-72
2022/01/09 14:22:47;;;;;;;4.57;2.00;;;;;;;;;;5036619;28;20025;-72
2022/01/09 14:25:27;;;;;;;4.10;2.03;;;;;;;;;;5035230;28;20032;-72
2022/01/09 14:27:53;;;;;;;4.07;1.95;;;;;;;;;;5036626;28;20101;-72
2022/01/09 14:30:21;;;;;;;3.97;1.85;;;;;;;;;;5044423;28;20021;-72
2022/01/09 14:32:47;;;;;;;3.67;1.95;;;;;;;;;;5056340;28;20063;-72
2022/01/09 14:35:29;;;;;;;3.33;2.15;;;;;;;;;;5056541;28;20021;-72
2022/01/09 14:38:00;;;;;;;3.72;2.30;;;;;;;;;;5056372;28;20036;-72
2022/01/09 14:40:26;;;;;;;3.03;2.00;;;;;;;;;;5056784;28;20029;-72
2022/01/09 14:42:52;;;;;;;3.80;2.05;;;;;;;;;;5036616;28;20390;-72
2022/01/09 14:45:21;;;;;;;4.05;2.30;;;;;;;;;;5036414;28;20022;-72
2022/01/09 14:47:48;;;;;;;3.97;1.73;;;;;;;;;;5036070;28;20033;-72
2022/01/09 14:50:18;;;;;;;3.15;2.00;;;;;;;;;;5035162;28;20025;-72
2022/01/09 14:52:47;;;;;;;3.65;1.95;;;;;;;;;;5036025;28;20033;-72